sensor_id;sensor_type;location;lat;lon;timestamp;P1;durP1;ratioP1;P2;durP2;ratioP2
52438;SDS011;38359;53.150;6.504;2023-02-11T00:03:05;48.05;;;7.93;;
52438;SDS011;38359;53.150;6.504;2023-02-11T00:13:31;35.10;;;6.75;;
52438;SDS011;38359;53.150;6.504;2023-02-11T00:23:58;44.88;;;8.18;;
52438;SDS011;38359;53.150;6.504;2023-02-11T00:34:26;40.47;;;8.20;;
52438;SDS011;38359;53.150;6.504;2023-02-11T00:44:51;36.53;;;8.15;;
52438;SDS011;38359;53.150;6.504;2023-02-11T00:55:17;53.92;;;9.48;;
52438;SDS011;38359;53.150;6.504;2023-02-11T01:05:43;43.88;;;9.30;;
52438;SDS011;38359;53.150;6.504;2023-02-11T01:16:09;44.17;;;9.23;;
52438;SDS011;38359;53.150;6.504;2023-02-11T01:26:36;46.30;;;9.88;;
52438;SDS011;38359;53.150;6.504;2023-02-11T01:37:02;45.10;;;10.30;;
52438;SDS011;38359;53.150;6.504;2023-02-11T01:47:27;40.40;;;9.50;;
52438;SDS011;38359;53.150;6.504;2023-02-11T01:57:54;58.15;;;11.73;;
52438;SDS011;38359;53.150;6.504;2023-02-11T02:40:58;39.80;;;13.63;;
52438;SDS011;38359;53.150;6.504;2023-02-11T03:12:42;51.90;;;19.77;;
52438;SDS011;38359;53.150;6.504;2023-02-11T03:34:43;74.07;;;24.98;;
52438;SDS011;38359;53.150;6.504;2023-02-11T03:45:22;63.08;;;23.52;;
52438;SDS011;38359;53.150;6.504;2023-02-11T03:55:51;76.82;;;26.52;;
52438;SDS011;38359;53.150;6.504;2023-02-11T04:06:21;64.25;;;24.83;;
52438;SDS011;38359;53.150;6.504;2023-02-11T04:16:46;66.95;;;27.05;;
52438;SDS011;38359;53.150;6.504;2023-02-11T04:27:15;79.53;;;28.38;;
52438;SDS011;38359;53.150;6.504;2023-02-11T04:37:41;77.43;;;29.45;;
52438;SDS011;38359;53.150;6.504;2023-02-11T04:48:07;77.95;;;30.83;;
52438;SDS011;38359;53.150;6.504;2023-02-11T04:58:32;78.15;;;29.25;;
52438;SDS011;38359;53.150;6.504;2023-02-11T05:08:58;66.85;;;28.33;;
52438;SDS011;38359;53.150;6.504;2023-02-11T05:19:24;72.55;;;28.23;;
52438;SDS011;38359;53.150;6.504;2023-02-11T05:29:50;68.25;;;28.17;;
52438;SDS011;38359;53.150;6.504;2023-02-11T05:40:16;75.78;;;27.92;;
52438;SDS011;38359;53.150;6.504;2023-02-11T05:50:42;67.90;;;26.88;;
52438;SDS011;38359;53.150;6.504;2023-02-11T06:01:08;63.88;;;27.50;;
52438;SDS011;38359;53.150;6.504;2023-02-11T06:11:34;63.28;;;26.13;;
52438;SDS011;38359;53.150;6.504;2023-02-11T06:22:00;67.20;;;26.58;;
52438;SDS011;38359;53.150;6.504;2023-02-11T06:32:26;69.15;;;30.13;;
52438;SDS011;38359;53.150;6.504;2023-02-11T06:42:53;75.80;;;29.73;;
52438;SDS011;38359;53.150;6.504;2023-02-11T06:53:19;80.93;;;29.25;;
52438;SDS011;38359;53.150;6.504;2023-02-11T07:03:45;63.95;;;27.83;;
52438;SDS011;38359;53.150;6.504;2023-02-11T07:14:11;72.85;;;30.27;;
52438;SDS011;38359;53.150;6.504;2023-02-11T07:24:37;62.25;;;27.98;;
52438;SDS011;38359;53.150;6.504;2023-02-11T07:35:03;69.45;;;29.50;;
52438;SDS011;38359;53.150;6.504;2023-02-11T07:45:29;62.88;;;26.90;;
52438;SDS011;38359;53.150;6.504;2023-02-11T07:55:55;66.50;;;29.13;;
52438;SDS011;38359;53.150;6.504;2023-02-11T08:06:22;65.70;;;26.83;;
52438;SDS011;38359;53.150;6.504;2023-02-11T08:16:50;66.97;;;26.15;;
52438;SDS011;38359;53.150;6.504;2023-02-11T08:27:15;58.90;;;25.00;;
52438;SDS011;38359;53.150;6.504;2023-02-11T08:37:41;55.80;;;24.45;;
52438;SDS011;38359;53.150;6.504;2023-02-11T08:48:07;51.55;;;23.33;;
52438;SDS011;38359;53.150;6.504;2023-02-11T08:58:33;54.33;;;22.67;;
52438;SDS011;38359;53.150;6.504;2023-02-11T09:08:58;48.35;;;20.90;;
52438;SDS011;38359;53.150;6.504;2023-02-11T09:19:24;48.15;;;20.50;;
52438;SDS011;38359;53.150;6.504;2023-02-11T09:29:50;49.85;;;20.30;;
52438;SDS011;38359;53.150;6.504;2023-02-11T09:40:16;53.63;;;19.33;;
52438;SDS011;38359;53.150;6.504;2023-02-11T09:50:48;46.45;;;18.88;;
52438;SDS011;38359;53.150;6.504;2023-02-11T10:01:32;42.17;;;16.88;;
52438;SDS011;38359;53.150;6.504;2023-02-11T10:23:09;33.22;;;13.50;;
52438;SDS011;38359;53.150;6.504;2023-02-11T10:33:53;29.50;;;9.40;;
52438;SDS011;38359;53.150;6.504;2023-02-11T10:44:32;23.92;;;8.52;;
52438;SDS011;38359;53.150;6.504;2023-02-11T10:55:14;30.85;;;7.32;;
52438;SDS011;38359;53.150;6.504;2023-02-11T11:05:47;28.65;;;7.53;;
52438;SDS011;38359;53.150;6.504;2023-02-11T11:26:58;21.83;;;5.55;;
52438;SDS011;38359;53.150;6.504;2023-02-11T11:37:34;26.80;;;5.70;;
52438;SDS011;38359;53.150;6.504;2023-02-11T11:48:21;31.05;;;4.43;;
52438;SDS011;38359;53.150;6.504;2023-02-11T11:59:12;27.35;;;4.13;;
52438;SDS011;38359;53.150;6.504;2023-02-11T12:09:44;18.45;;;3.75;;
52438;SDS011;38359;53.150;6.504;2023-02-11T12:20:53;17.00;;;3.33;;
52438;SDS011;38359;53.150;6.504;2023-02-11T13:04:46;23.33;;;3.13;;
52438;SDS011;38359;53.150;6.504;2023-02-11T13:15:18;26.83;;;3.60;;
52438;SDS011;38359;53.150;6.504;2023-02-11T13:25:56;13.68;;;2.70;;
52438;SDS011;38359;53.150;6.504;2023-02-11T13:36:32;16.67;;;2.95;;
52438;SDS011;38359;53.150;6.504;2023-02-11T13:47:00;24.33;;;4.53;;
52438;SDS011;38359;53.150;6.504;2023-02-11T13:57:30;25.73;;;3.60;;
52438;SDS011;38359;53.150;6.504;2023-02-11T14:40:17;26.98;;;3.50;;
52438;SDS011;38359;53.150;6.504;2023-02-11T14:51:28;33.13;;;5.13;;
52438;SDS011;38359;53.150;6.504;2023-02-11T15:02:00;27.08;;;5.32;;
52438;SDS011;38359;53.150;6.504;2023-02-11T15:12:26;31.70;;;4.70;;
52438;SDS011;38359;53.150;6.504;2023-02-11T15:22:56;25.83;;;3.60;;
52438;SDS011;38359;53.150;6.504;2023-02-11T15:33:26;21.48;;;3.70;;
52438;SDS011;38359;53.150;6.504;2023-02-11T15:43:54;19.88;;;3.72;;
52438;SDS011;38359;53.150;6.504;2023-02-11T15:54:21;27.50;;;3.92;;
52438;SDS011;38359;53.150;6.504;2023-02-11T16:04:55;23.85;;;3.88;;
52438;SDS011;38359;53.150;6.504;2023-02-11T16:26:32;23.83;;;3.85;;
52438;SDS011;38359;53.150;6.504;2023-02-11T16:37:04;31.23;;;7.05;;
52438;SDS011;38359;53.150;6.504;2023-02-11T16:47:30;36.65;;;7.32;;
52438;SDS011;38359;53.150;6.504;2023-02-11T16:57:58;28.80;;;7.15;;
52438;SDS011;38359;53.150;6.504;2023-02-11T17:08:24;33.65;;;4.05;;
52438;SDS011;38359;53.150;6.504;2023-02-11T17:18:49;25.25;;;4.63;;
52438;SDS011;38359;53.150;6.504;2023-02-11T17:29:17;35.63;;;5.97;;
52438;SDS011;38359;53.150;6.504;2023-02-11T17:39:45;30.98;;;4.32;;
52438;SDS011;38359;53.150;6.504;2023-02-11T17:50:13;24.08;;;5.53;;
52438;SDS011;38359;53.150;6.504;2023-02-11T18:00:39;23.10;;;4.55;;
52438;SDS011;38359;53.150;6.504;2023-02-11T18:11:08;34.45;;;8.45;;
52438;SDS011;38359;53.150;6.504;2023-02-11T18:21:36;29.52;;;5.95;;
52438;SDS011;38359;53.150;6.504;2023-02-11T18:32:02;41.58;;;7.28;;
52438;SDS011;38359;53.150;6.504;2023-02-11T18:42:27;55.58;;;13.32;;
52438;SDS011;38359;53.150;6.504;2023-02-11T18:52:53;38.83;;;10.45;;
52438;SDS011;38359;53.150;6.504;2023-02-11T19:03:19;34.65;;;5.82;;
52438;SDS011;38359;53.150;6.504;2023-02-11T19:13:45;38.65;;;6.25;;
52438;SDS011;38359;53.150;6.504;2023-02-11T19:24:16;40.53;;;6.28;;
52438;SDS011;38359;53.150;6.504;2023-02-11T19:34:45;33.88;;;7.03;;
52438;SDS011;38359;53.150;6.504;2023-02-11T19:45:11;42.13;;;7.15;;
52438;SDS011;38359;53.150;6.504;2023-02-11T19:55:37;45.90;;;8.52;;
52438;SDS011;38359;53.150;6.504;2023-02-11T20:06:06;45.15;;;11.07;;
52438;SDS011;38359;53.150;6.504;2023-02-11T20:16:36;50.97;;;9.00;;
52438;SDS011;38359;53.150;6.504;2023-02-11T20:27:03;40.40;;;10.25;;
52438;SDS011;38359;53.150;6.504;2023-02-11T20:37:32;40.42;;;10.45;;
52438;SDS011;38359;53.150;6.504;2023-02-11T20:47:58;35.55;;;11.25;;
52438;SDS011;38359;53.150;6.504;2023-02-11T20:58:24;51.63;;;12.15;;
52438;SDS011;38359;53.150;6.504;2023-02-11T21:08:50;43.40;;;13.02;;
52438;SDS011;38359;53.150;6.504;2023-02-11T21:19:17;51.92;;;12.68;;
52438;SDS011;38359;53.150;6.504;2023-02-11T21:29:43;46.55;;;10.45;;
52438;SDS011;38359;53.150;6.504;2023-02-11T21:40:09;40.22;;;12.32;;
52438;SDS011;38359;53.150;6.504;2023-02-11T21:50:39;51.58;;;12.93;;
52438;SDS011;38359;53.150;6.504;2023-02-11T22:01:10;51.15;;;12.40;;
52438;SDS011;38359;53.150;6.504;2023-02-11T22:11:45;38.13;;;12.35;;
52438;SDS011;38359;53.150;6.504;2023-02-11T22:22:13;33.28;;;11.57;;
52438;SDS011;38359;53.150;6.504;2023-02-11T22:32:42;41.67;;;11.15;;
52438;SDS011;38359;53.150;6.504;2023-02-11T22:43:08;39.85;;;12.50;;
52438;SDS011;38359;53.150;6.504;2023-02-11T22:53:34;46.42;;;12.00;;
52438;SDS011;38359;53.150;6.504;2023-02-11T23:04:01;47.03;;;13.82;;
52438;SDS011;38359;53.150;6.504;2023-02-11T23:14:29;48.65;;;13.95;;
52438;SDS011;38359;53.150;6.504;2023-02-11T23:24:56;59.03;;;15.25;;
52438;SDS011;38359;53.150;6.504;2023-02-11T23:35:21;59.80;;;17.30;;
52438;SDS011;38359;53.150;6.504;2023-02-11T23:45:48;49.10;;;18.20;;
52438;SDS011;38359;53.150;6.504;2023-02-11T23:56:17;64.75;;;19.55;;
